HRA weather

Reforma 211-213 Heliport
Cuahutemoc, Distrito Federal, Mexico

Public forecast

Using degrees Celsius for public forecast. Weather courtesy of forecast.io.

METAR (pilot weather report)

Closest report is Licenciado Benito Juarez International Airport, 5.1 nm (9.5 km) E. Retrieved 2019/08/21 17:52 UTC (21 minutes ago):

MMMX 211752Z 19004KT 7SM SKC 22/07 A3033 NOSIG RMK SLP095 57015 900 HZY CU ARND AC

TAF (pilot weather forecast)

Closest forecast is Licenciado Benito Juarez International Airport, 5.1 nm (9.5 km) E. Retrieved 2019/08/21 18:42 UTC (0 seconds ago):

TAF MMMX 211640Z 2118/2224 13010KT 6SM HZ SCT020 TX25/2121Z TN14/2212Z FM212000 08012KT 6SM HZ BKN025 TEMPO 2122/2202 5SM TSRA BKN020CB FM220200 06010KT 6SM HZ BKN020 BKN090 TEMPO 2202/2204 5SM -RA BKN020CB FM220400 06005KT 6SM HZ SCT020 SCT100 BKN200 FM221800 16010KT P6SM BKN030